createdAt,value
2018-06-30T00:01:37.675Z,0.90
2018-06-30T00:04:06.056Z,0.97
2018-06-30T00:06:34.390Z,1.07
2018-06-30T00:09:02.721Z,1.20
2018-06-30T00:11:31.046Z,0.90
2018-06-30T00:13:59.383Z,1.03
2018-06-30T00:16:27.786Z,1.00
2018-06-30T00:18:56.129Z,0.80
2018-06-30T00:21:24.473Z,1.40
2018-06-30T00:23:52.856Z,1.20
2018-06-30T00:26:21.189Z,0.93
2018-06-30T00:28:49.527Z,0.90
2018-06-30T00:31:17.853Z,0.90
2018-06-30T00:33:46.200Z,0.80
2018-06-30T00:36:14.550Z,0.70
2018-06-30T00:38:42.885Z,0.70
2018-06-30T00:41:11.202Z,0.70
2018-06-30T00:43:39.530Z,1.10
2018-06-30T00:46:07.838Z,0.80
2018-06-30T00:48:36.243Z,0.97
2018-06-30T00:51:04.560Z,0.80
2018-06-30T00:53:32.895Z,0.90
2018-06-30T00:56:01.239Z,1.17
2018-06-30T00:58:29.607Z,0.90
2018-06-30T01:00:58.024Z,1.27
2018-06-30T01:03:26.408Z,0.80
2018-06-30T01:05:54.746Z,0.80
2018-06-30T01:08:23.101Z,0.80
2018-06-30T01:10:51.416Z,1.00
2018-06-30T01:13:19.752Z,1.10
2018-06-30T01:15:48.089Z,1.20
2018-06-30T01:18:16.409Z,0.90
2018-06-30T01:20:44.738Z,1.23
2018-06-30T01:23:13.084Z,1.50
2018-06-30T01:25:41.430Z,1.30
2018-06-30T01:28:09.774Z,1.30
2018-06-30T01:30:38.135Z,1.20
2018-06-30T01:33:06.751Z,1.30
2018-06-30T01:35:35.130Z,1.00
2018-06-30T01:38:03.482Z,1.10
2018-06-30T01:40:31.823Z,1.47
2018-06-30T01:43:00.156Z,1.23
2018-06-30T01:45:28.479Z,1.00
2018-06-30T01:47:56.816Z,1.10
2018-06-30T01:50:25.187Z,1.10
2018-06-30T01:52:53.524Z,1.10
2018-06-30T01:55:27.466Z,1.30
2018-06-30T01:57:55.817Z,1.27
2018-06-30T02:00:24.146Z,1.00
2018-06-30T02:02:52.466Z,0.83
2018-06-30T02:05:20.794Z,0.87
2018-06-30T02:07:49.240Z,0.83
2018-06-30T02:10:17.579Z,1.03
2018-06-30T02:12:45.912Z,0.80
2018-06-30T02:15:14.255Z,0.80
2018-06-30T02:17:42.583Z,0.87
2018-06-30T02:20:10.919Z,0.70
2018-06-30T02:22:39.254Z,0.60
2018-06-30T02:25:07.579Z,0.90
2018-06-30T02:27:35.923Z,0.80
2018-06-30T02:30:04.818Z,1.00
2018-06-30T02:32:33.147Z,0.80
2018-06-30T02:35:01.603Z,0.70
2018-06-30T02:37:29.938Z,0.90
2018-06-30T02:39:58.304Z,0.83
2018-06-30T02:42:26.633Z,0.97
2018-06-30T02:44:55.030Z,0.90
2018-06-30T02:47:23.465Z,0.90
2018-06-30T02:49:51.833Z,0.70
2018-06-30T02:52:20.215Z,0.80
2018-06-30T02:54:48.545Z,0.70
2018-06-30T02:57:16.949Z,0.80
2018-06-30T02:59:45.282Z,0.70
2018-06-30T03:02:13.592Z,0.73
2018-06-30T03:04:41.943Z,0.77
2018-06-30T03:07:10.271Z,0.80
2018-06-30T03:09:38.787Z,0.77
2018-06-30T03:12:07.161Z,0.90
2018-06-30T03:14:35.501Z,0.63
2018-06-30T03:17:03.882Z,0.90
2018-06-30T03:19:32.216Z,0.70
2018-06-30T03:22:00.520Z,0.80
2018-06-30T03:24:28.947Z,0.70
2018-06-30T03:26:57.325Z,1.10
2018-06-30T03:29:25.627Z,0.70
2018-06-30T03:31:53.936Z,0.80
2018-06-30T03:34:22.316Z,1.10
2018-06-30T03:36:50.664Z,0.63
2018-06-30T03:39:18.971Z,0.70
2018-06-30T03:41:47.320Z,0.80
2018-06-30T03:44:15.670Z,0.77
2018-06-30T03:46:44.020Z,0.83
2018-06-30T03:49:12.340Z,0.80
2018-06-30T03:51:40.658Z,0.90
2018-06-30T03:54:08.993Z,0.83
2018-06-30T03:56:37.330Z,0.60
2018-06-30T03:59:05.848Z,0.90
2018-06-30T04:01:34.192Z,0.80
2018-06-30T04:04:02.539Z,0.73
2018-06-30T04:06:30.908Z,0.93
2018-06-30T04:08:59.216Z,0.93
2018-06-30T04:11:27.563Z,0.63
2018-06-30T04:13:55.937Z,0.60
2018-06-30T04:16:24.251Z,0.60
2018-06-30T04:18:52.567Z,0.60
2018-06-30T04:21:20.879Z,0.80
2018-06-30T04:23:49.196Z,0.90
2018-06-30T04:26:17.606Z,0.63
2018-06-30T04:28:45.934Z,0.70
2018-06-30T04:31:14.272Z,0.90
2018-06-30T04:33:42.609Z,0.57
2018-06-30T04:36:10.984Z,0.90
2018-06-30T04:38:39.320Z,0.93
2018-06-30T04:41:07.629Z,0.80
2018-06-30T04:43:35.979Z,0.93
2018-06-30T04:46:04.333Z,0.77
2018-06-30T04:48:32.680Z,1.13
2018-06-30T04:51:01.072Z,0.80
2018-06-30T04:53:29.415Z,0.80
2018-06-30T04:55:57.774Z,0.80
2018-06-30T04:58:26.945Z,0.80
2018-06-30T05:00:55.289Z,0.90
2018-06-30T05:03:23.628Z,1.43
2018-06-30T05:05:51.976Z,0.80
2018-06-30T05:08:20.321Z,0.70
2018-06-30T05:10:48.635Z,0.67
2018-06-30T05:13:16.971Z,1.10
2018-06-30T05:15:45.319Z,0.80
2018-06-30T05:18:13.635Z,0.80
2018-06-30T05:20:41.982Z,0.70
2018-06-30T05:23:10.356Z,0.90
2018-06-30T05:25:38.693Z,0.80
2018-06-30T05:28:07.035Z,0.77
2018-06-30T05:30:35.390Z,0.70
2018-06-30T05:33:03.764Z,0.70
2018-06-30T05:35:32.119Z,0.77
2018-06-30T05:38:00.497Z,0.90
2018-06-30T05:40:28.841Z,0.80
2018-06-30T05:42:57.399Z,0.63
2018-06-30T05:45:25.737Z,0.60
2018-06-30T05:47:54.071Z,0.80
2018-06-30T05:50:22.429Z,1.27
2018-06-30T05:52:50.797Z,0.80
2018-06-30T05:55:19.116Z,0.93
2018-06-30T05:57:47.620Z,0.87
2018-06-30T06:00:15.944Z,0.70
2018-06-30T06:02:44.272Z,0.63
2018-06-30T06:05:12.598Z,0.80
2018-06-30T06:07:40.928Z,0.90
2018-06-30T06:10:09.258Z,1.00
2018-06-30T06:12:37.617Z,0.70
2018-06-30T06:15:05.980Z,0.50
2018-06-30T06:17:34.412Z,0.90
2018-06-30T06:20:02.758Z,0.50
2018-06-30T06:22:31.100Z,0.80
2018-06-30T06:24:59.428Z,0.70
2018-06-30T06:27:27.805Z,0.70
2018-06-30T06:29:56.104Z,0.70
2018-06-30T06:32:24.449Z,0.57
2018-06-30T06:34:52.808Z,0.60
2018-06-30T06:37:21.234Z,0.70
2018-06-30T06:39:49.598Z,0.50
2018-06-30T06:42:17.920Z,0.60
2018-06-30T06:44:46.262Z,0.60
2018-06-30T06:47:14.705Z,0.50
2018-06-30T06:49:43.049Z,0.50
2018-06-30T06:52:11.395Z,0.70
2018-06-30T06:54:39.737Z,0.60
2018-06-30T06:57:08.080Z,0.50
2018-06-30T06:59:36.451Z,0.40
2018-06-30T07:02:04.808Z,0.50
2018-06-30T07:04:33.152Z,0.60
2018-06-30T07:07:01.587Z,0.80
2018-06-30T07:09:29.932Z,0.50
2018-06-30T07:11:58.275Z,0.50
2018-06-30T07:14:26.604Z,0.57
2018-06-30T07:16:54.941Z,0.50
2018-06-30T07:19:23.269Z,0.70
2018-06-30T07:21:51.601Z,0.60
2018-06-30T07:24:19.915Z,0.80
2018-06-30T07:26:48.254Z,0.55
2018-06-30T07:29:16.606Z,0.50
2018-06-30T07:31:44.935Z,0.55
2018-06-30T07:34:13.291Z,0.60
2018-06-30T07:36:41.655Z,0.40
2018-06-30T07:39:10.416Z,0.50
2018-06-30T07:41:39.822Z,0.53
2018-06-30T07:44:08.707Z,0.47
2018-06-30T07:46:37.063Z,0.70
2018-06-30T07:49:05.546Z,0.55
2018-06-30T07:51:33.911Z,0.50
2018-06-30T07:54:02.238Z,0.50
2018-06-30T07:56:30.591Z,0.47
2018-06-30T07:58:58.930Z,0.60
2018-06-30T08:01:27.239Z,0.60
2018-06-30T08:03:55.547Z,0.50
2018-06-30T08:06:23.899Z,0.50
2018-06-30T08:08:52.258Z,0.53
2018-06-30T08:11:20.587Z,0.60
2018-06-30T08:13:48.966Z,0.60
2018-06-30T08:16:17.310Z,0.57
2018-06-30T08:18:45.617Z,0.68
2018-06-30T08:21:14.067Z,0.50
2018-06-30T08:23:42.360Z,0.40
2018-06-30T08:26:10.708Z,0.60
2018-06-30T08:28:39.133Z,0.50
2018-06-30T08:31:07.467Z,0.40
2018-06-30T08:33:35.827Z,0.33
2018-06-30T08:36:04.175Z,0.60
2018-06-30T08:38:32.563Z,0.80
2018-06-30T08:41:01.000Z,0.50
2018-06-30T08:43:29.346Z,0.62
2018-06-30T08:45:57.743Z,0.53
2018-06-30T08:48:26.093Z,0.47
2018-06-30T08:50:54.414Z,0.50
2018-06-30T08:53:22.913Z,0.40
2018-06-30T08:55:51.235Z,0.50
2018-06-30T08:58:19.584Z,0.70
2018-06-30T09:00:47.951Z,0.53
2018-06-30T09:03:16.449Z,0.60
2018-06-30T09:05:44.828Z,0.50
2018-06-30T09:08:13.195Z,0.53
2018-06-30T09:10:41.549Z,0.60
2018-06-30T09:13:09.883Z,0.70
2018-06-30T09:15:38.267Z,0.55
2018-06-30T09:18:06.896Z,0.70
2018-06-30T09:20:35.259Z,0.60
2018-06-30T09:23:03.576Z,0.60
2018-06-30T09:25:31.924Z,0.50
2018-06-30T09:28:00.313Z,0.53
2018-06-30T09:30:28.687Z,0.70
2018-06-30T09:32:57.032Z,0.50
2018-06-30T09:35:25.426Z,0.70
2018-06-30T09:37:53.786Z,0.57
2018-06-30T09:40:22.162Z,0.60
2018-06-30T09:42:51.193Z,0.57
2018-06-30T09:45:19.508Z,0.70
2018-06-30T09:47:48.527Z,0.57
2018-06-30T09:50:16.942Z,0.40
2018-06-30T09:52:45.324Z,0.50
2018-06-30T09:55:13.672Z,0.42
2018-06-30T09:57:42.044Z,0.63
2018-06-30T10:00:10.629Z,1.00
2018-06-30T10:02:38.985Z,0.50
2018-06-30T10:05:07.362Z,0.70
2018-06-30T10:07:35.793Z,0.50
2018-06-30T10:10:04.390Z,0.60
2018-06-30T10:12:32.728Z,0.60
2018-06-30T10:15:01.076Z,0.60
2018-06-30T10:17:29.460Z,0.60
2018-06-30T10:19:57.792Z,0.62
2018-06-30T10:23:50.523Z,0.70
2018-06-30T10:26:18.864Z,0.68
2018-06-30T10:28:47.225Z,0.60
2018-06-30T10:31:15.613Z,0.60
2018-06-30T10:33:43.936Z,0.40
2018-06-30T10:36:12.312Z,0.50
2018-06-30T10:38:40.670Z,0.72
2018-06-30T10:41:09.121Z,0.50
2018-06-30T10:43:39.239Z,0.60
2018-06-30T10:46:07.671Z,0.78
2018-06-30T10:48:36.066Z,0.50
2018-06-30T10:51:04.407Z,0.68
2018-06-30T10:53:32.838Z,0.50
2018-06-30T10:56:01.185Z,0.60
2018-06-30T10:58:29.929Z,0.62
2018-06-30T11:00:58.256Z,0.57
2018-06-30T11:03:26.586Z,0.70
2018-06-30T11:05:55.020Z,0.60
2018-06-30T11:08:23.382Z,0.80
2018-06-30T11:10:51.736Z,0.80
2018-06-30T11:13:20.082Z,0.63
2018-06-30T11:15:48.500Z,0.50
2018-06-30T11:18:16.874Z,0.70
2018-06-30T11:20:45.222Z,0.97
2018-06-30T11:23:13.593Z,0.80
2018-06-30T11:25:41.963Z,0.87
2018-06-30T11:28:10.295Z,0.80
2018-06-30T11:30:38.643Z,0.80
2018-06-30T11:33:07.100Z,0.70
2018-06-30T11:35:35.480Z,0.70
2018-06-30T11:38:03.871Z,0.80
2018-06-30T11:40:32.296Z,0.73
2018-06-30T11:43:00.660Z,0.70
2018-06-30T11:45:29.010Z,0.70
2018-06-30T11:47:57.361Z,0.80
2018-06-30T11:50:25.800Z,0.90
2018-06-30T11:52:54.112Z,0.80
2018-06-30T11:55:22.500Z,0.60
2018-06-30T11:57:50.894Z,0.73
2018-06-30T12:00:19.248Z,0.70
2018-06-30T12:02:47.590Z,0.90
2018-06-30T12:05:15.926Z,1.00
2018-06-30T12:07:44.285Z,0.80
2018-06-30T12:10:12.628Z,0.80
2018-06-30T12:12:41.042Z,0.90
2018-06-30T12:15:09.461Z,0.80
2018-06-30T12:17:37.827Z,0.73
2018-06-30T12:20:06.348Z,0.80
2018-06-30T12:22:34.703Z,1.00
2018-06-30T12:25:03.062Z,1.10
2018-06-30T12:27:31.421Z,1.00
2018-06-30T12:29:59.798Z,0.90
2018-06-30T12:32:28.129Z,1.10
2018-06-30T12:34:56.509Z,0.90
2018-06-30T12:37:24.830Z,1.00
2018-06-30T12:39:53.178Z,1.00
2018-06-30T12:42:21.529Z,0.93
2018-06-30T12:44:49.928Z,1.00
2018-06-30T12:47:18.273Z,1.20
2018-06-30T12:49:46.649Z,0.90
2018-06-30T12:52:14.991Z,0.57
2018-06-30T12:54:43.411Z,0.80
2018-06-30T12:57:11.718Z,0.70
2018-06-30T12:59:40.074Z,0.70
2018-06-30T13:02:08.548Z,0.70
2018-06-30T13:04:36.923Z,0.80
2018-06-30T13:07:05.623Z,0.60
2018-06-30T13:09:33.976Z,0.50
2018-06-30T13:12:02.329Z,0.80
2018-06-30T13:14:30.660Z,0.50
2018-06-30T13:16:58.990Z,0.80
2018-06-30T13:19:27.336Z,0.70
2018-06-30T13:21:56.004Z,0.50
2018-06-30T13:24:24.343Z,0.50
2018-06-30T13:26:52.689Z,0.50
2018-06-30T13:29:21.067Z,0.60
2018-06-30T13:31:49.386Z,0.50
2018-06-30T13:34:17.758Z,0.50
2018-06-30T13:36:46.137Z,0.40
2018-06-30T13:39:15.612Z,0.40
2018-06-30T13:41:44.207Z,0.57
2018-06-30T13:44:13.304Z,0.47
2018-06-30T13:46:41.667Z,0.50
2018-06-30T13:49:10.004Z,0.50
2018-06-30T13:51:38.352Z,0.50
2018-06-30T13:54:07.518Z,0.50
2018-06-30T13:56:35.861Z,0.60
2018-06-30T13:59:04.230Z,0.57
2018-06-30T14:01:32.591Z,0.50
2018-06-30T14:04:00.908Z,0.53
2018-06-30T14:06:29.271Z,0.60
2018-06-30T14:08:57.829Z,0.70
2018-06-30T14:11:26.435Z,0.70
2018-06-30T14:13:54.829Z,0.57
2018-06-30T14:16:23.211Z,0.80
2018-06-30T14:18:51.550Z,0.50
2018-06-30T14:21:19.896Z,0.80
2018-06-30T14:23:48.247Z,0.60
2018-06-30T14:26:16.588Z,0.70
2018-06-30T14:28:44.951Z,0.83
2018-06-30T14:31:13.277Z,0.70
2018-06-30T14:33:41.604Z,0.60
2018-06-30T14:36:10.067Z,0.70
2018-06-30T14:38:38.408Z,0.60
2018-06-30T14:41:06.757Z,0.50
2018-06-30T14:43:35.274Z,0.50
2018-06-30T14:46:04.319Z,0.50
2018-06-30T14:48:36.258Z,0.50
2018-06-30T14:51:04.612Z,0.50
2018-06-30T14:53:32.984Z,0.60
2018-06-30T14:56:01.369Z,0.40
2018-06-30T14:58:29.741Z,0.63
2018-06-30T15:00:58.124Z,0.73
2018-06-30T15:03:26.501Z,0.50
2018-06-30T15:05:54.844Z,0.60
2018-06-30T15:08:23.194Z,0.50
2018-06-30T15:10:51.815Z,0.60
2018-06-30T15:13:20.165Z,0.60
2018-06-30T15:15:48.532Z,0.40
2018-06-30T15:18:16.875Z,0.60
2018-06-30T15:20:45.261Z,0.70
2018-06-30T15:23:13.619Z,0.50
2018-06-30T15:25:42.014Z,0.57
2018-06-30T15:28:10.397Z,0.47
2018-06-30T15:30:39.491Z,0.40
2018-06-30T15:33:07.905Z,0.60
2018-06-30T15:35:36.283Z,0.67
2018-06-30T15:38:04.636Z,0.50
2018-06-30T15:40:33.005Z,0.67
2018-06-30T15:43:01.368Z,0.67
2018-06-30T15:45:30.109Z,1.20
2018-06-30T15:47:58.453Z,1.37
2018-06-30T15:50:26.835Z,1.03
2018-06-30T15:52:55.179Z,1.43
2018-06-30T15:55:23.569Z,1.60
2018-06-30T15:57:51.993Z,1.90
2018-06-30T16:00:20.938Z,1.10
2018-06-30T16:02:49.295Z,1.50
2018-06-30T16:05:17.668Z,0.90
2018-06-30T16:07:46.034Z,0.90
2018-06-30T16:10:14.413Z,1.07
2018-06-30T16:12:42.769Z,0.83
2018-06-30T16:15:11.135Z,0.87
2018-06-30T16:17:39.517Z,0.80
2018-06-30T16:20:07.892Z,0.93
2018-06-30T16:22:36.260Z,0.90
2018-06-30T16:25:04.995Z,0.83
2018-06-30T16:27:33.339Z,0.73
2018-06-30T16:30:01.718Z,0.80
2018-06-30T16:32:30.130Z,0.80
2018-06-30T16:34:58.509Z,0.87
2018-06-30T16:37:26.856Z,0.80
2018-06-30T16:39:55.199Z,0.80
2018-06-30T16:42:23.550Z,0.90
2018-06-30T16:44:52.021Z,0.80
2018-06-30T16:47:20.373Z,0.90
2018-06-30T16:49:48.740Z,0.80
2018-06-30T16:52:17.065Z,0.70
2018-06-30T16:54:45.396Z,0.70
2018-06-30T16:57:13.753Z,0.77
2018-06-30T16:59:42.134Z,0.60
2018-06-30T17:02:10.512Z,0.60
2018-06-30T17:04:38.860Z,0.63
2018-06-30T17:07:07.199Z,0.70
2018-06-30T17:09:35.544Z,0.80
2018-06-30T17:12:03.891Z,0.60
2018-06-30T17:14:32.230Z,0.80
2018-06-30T17:17:01.178Z,0.47
2018-06-30T17:19:29.522Z,0.50
2018-06-30T17:21:57.849Z,0.60
2018-06-30T17:24:26.200Z,0.50
2018-06-30T17:26:54.544Z,0.50
2018-06-30T17:29:22.986Z,0.50
2018-06-30T17:31:51.334Z,0.60
2018-06-30T17:34:19.668Z,0.60
2018-06-30T17:36:48.020Z,0.57
2018-06-30T17:39:16.369Z,0.50
2018-06-30T17:41:44.699Z,0.73
2018-06-30T17:44:13.095Z,0.70
2018-06-30T17:46:41.449Z,0.80
2018-06-30T17:49:09.822Z,0.70
2018-06-30T17:51:38.199Z,0.57
2018-06-30T17:54:07.157Z,0.60
2018-06-30T17:56:35.652Z,0.40
2018-06-30T17:59:04.252Z,0.50
2018-06-30T18:01:32.684Z,0.70
2018-06-30T18:04:01.024Z,0.90
2018-06-30T18:06:29.386Z,0.90
2018-06-30T18:08:57.737Z,0.60
2018-06-30T18:11:26.102Z,0.80
2018-06-30T18:13:54.818Z,0.97
2018-06-30T18:16:23.208Z,1.10
2018-06-30T18:18:51.546Z,1.17
2018-06-30T18:21:19.906Z,1.27
2018-06-30T18:23:48.276Z,0.70
2018-06-30T18:26:16.660Z,0.70
2018-06-30T18:28:44.975Z,0.70
2018-06-30T18:31:13.361Z,0.70
2018-06-30T18:33:41.837Z,0.70
2018-06-30T18:36:10.216Z,0.80
2018-06-30T18:38:38.852Z,0.70
2018-06-30T18:41:07.231Z,0.60
2018-06-30T18:43:35.602Z,0.70
2018-06-30T18:46:03.967Z,0.87
2018-06-30T18:48:32.507Z,1.00
2018-06-30T18:51:00.852Z,0.97
2018-06-30T18:53:29.177Z,0.87
2018-06-30T18:55:57.556Z,0.70
2018-06-30T18:58:25.929Z,0.80
2018-06-30T19:00:54.284Z,0.83
2018-06-30T19:03:23.118Z,0.90
2018-06-30T19:05:51.978Z,0.93
2018-06-30T19:08:20.311Z,0.70
2018-06-30T19:10:48.958Z,0.83
2018-06-30T19:13:17.290Z,0.70
2018-06-30T19:15:45.614Z,0.80
2018-06-30T19:18:13.961Z,0.70
2018-06-30T19:20:42.297Z,0.80
2018-06-30T19:23:10.614Z,0.93
2018-06-30T19:25:38.985Z,1.00
2018-06-30T19:28:07.844Z,1.03
2018-06-30T19:30:36.223Z,1.27
2018-06-30T19:33:04.634Z,1.33
2018-06-30T19:35:33.012Z,1.10
2018-06-30T19:38:01.433Z,0.93
2018-06-30T19:40:29.812Z,1.10
2018-06-30T19:42:58.226Z,1.10
2018-06-30T19:45:26.562Z,1.00
2018-06-30T19:47:54.980Z,0.80
2018-06-30T19:50:23.329Z,1.40
2018-06-30T19:52:51.765Z,1.10
2018-06-30T19:55:20.043Z,1.20
2018-06-30T19:57:48.396Z,1.10
2018-06-30T20:00:16.746Z,1.17
2018-06-30T20:02:45.122Z,1.10
2018-06-30T20:05:13.604Z,0.97
2018-06-30T20:07:47.308Z,1.03
2018-06-30T20:10:15.823Z,1.30
2018-06-30T20:12:44.171Z,0.90
2018-06-30T20:15:12.494Z,1.20
2018-06-30T20:17:40.850Z,1.20
2018-06-30T20:20:09.745Z,1.37
2018-06-30T20:22:38.091Z,1.00
2018-06-30T20:25:06.475Z,1.27
2018-06-30T20:27:34.859Z,1.17
2018-06-30T20:30:03.363Z,0.90
2018-06-30T20:32:31.675Z,1.03
2018-06-30T20:35:00.229Z,1.25
2018-06-30T20:37:28.671Z,1.00
2018-06-30T20:39:57.195Z,1.20
2018-06-30T20:42:25.672Z,1.40
2018-06-30T20:44:54.033Z,1.10
2018-06-30T20:47:22.401Z,1.10
2018-06-30T20:49:50.753Z,1.30
2018-06-30T20:52:19.096Z,1.17
2018-06-30T20:54:47.719Z,1.17
2018-06-30T20:57:16.064Z,1.23
2018-06-30T20:59:44.427Z,1.07
2018-06-30T21:02:12.783Z,1.20
2018-06-30T21:04:41.136Z,1.10
2018-06-30T21:07:09.538Z,1.30
2018-06-30T21:09:37.878Z,1.30
2018-06-30T21:12:06.222Z,1.20
2018-06-30T21:14:34.533Z,1.47
2018-06-30T21:17:02.888Z,1.23
2018-06-30T21:19:31.278Z,1.33
2018-06-30T21:21:59.614Z,1.30
2018-06-30T21:24:27.941Z,1.30
2018-06-30T21:26:56.291Z,1.20
2018-06-30T21:29:24.603Z,1.23
2018-06-30T21:31:52.983Z,1.20
2018-06-30T21:34:21.395Z,1.10
2018-06-30T21:36:49.756Z,1.43
2018-06-30T21:39:18.147Z,1.30
2018-06-30T21:41:46.519Z,1.33
2018-06-30T21:44:14.924Z,1.10
2018-06-30T21:46:43.256Z,1.20
2018-06-30T21:49:11.652Z,1.30
2018-06-30T21:51:39.995Z,1.30
2018-06-30T21:54:09.336Z,1.40
2018-06-30T21:56:37.741Z,1.50
2018-06-30T21:59:06.076Z,1.33
2018-06-30T22:01:34.439Z,1.60
2018-06-30T22:04:02.807Z,1.47
2018-06-30T22:06:31.128Z,1.10
2018-06-30T22:08:59.472Z,1.07
2018-06-30T22:11:27.893Z,1.30
2018-06-30T22:13:56.282Z,1.00
2018-06-30T22:16:24.624Z,1.00
2018-06-30T22:18:52.969Z,1.40
2018-06-30T22:21:21.314Z,1.20
2018-06-30T22:23:49.651Z,1.00
2018-06-30T22:26:18.066Z,1.03
2018-06-30T22:28:46.419Z,0.93
2018-06-30T22:31:17.620Z,0.90
2018-06-30T22:33:45.999Z,1.00
2018-06-30T22:36:14.417Z,1.00
2018-06-30T22:38:42.776Z,1.17
2018-06-30T22:41:11.152Z,1.17
2018-06-30T22:43:39.532Z,1.17
2018-06-30T22:46:08.058Z,1.00
2018-06-30T22:48:36.382Z,0.80
2018-06-30T22:51:04.723Z,0.80
2018-06-30T22:53:33.057Z,0.90
2018-06-30T22:56:01.407Z,0.67
2018-06-30T22:58:30.289Z,0.80
2018-06-30T23:00:58.604Z,0.87
2018-06-30T23:03:26.950Z,0.80
2018-06-30T23:05:55.295Z,0.97
2018-06-30T23:08:23.717Z,0.90
2018-06-30T23:10:52.124Z,1.07
2018-06-30T23:13:20.466Z,1.00
2018-06-30T23:15:48.815Z,0.93
2018-06-30T23:18:17.217Z,0.90
2018-06-30T23:20:45.567Z,0.80
2018-06-30T23:23:13.993Z,1.00
2018-06-30T23:25:42.516Z,1.00
2018-06-30T23:28:10.950Z,1.10
2018-06-30T23:30:39.459Z,1.20
2018-06-30T23:33:07.943Z,1.00
2018-06-30T23:35:36.297Z,1.00
2018-06-30T23:38:04.906Z,1.13
2018-06-30T23:40:33.374Z,1.00
2018-06-30T23:43:01.707Z,1.10
2018-06-30T23:45:30.056Z,1.00
2018-06-30T23:47:58.540Z,0.97
2018-06-30T23:50:26.940Z,1.00
2018-06-30T23:52:55.288Z,1.10
2018-06-30T23:55:23.642Z,0.97
2018-06-30T23:57:52.024Z,1.07
